Gas Snapper — V7TZ3 — position and weather

sailwx.info

Track history (hours):
 
Tides and Currents Weather Stations Pressure Air Temp Water Temp Dewpoint Dewpoint Depression Visibility Wind Speed Wind Dir Waves Ship Positions

Gas Snapper

Last reported at 2014-Sep-03 03:12 UTC. Time now 2014-Sep-03 07:14 UTC.
Position N 36°32' E 013°43'.

Length 174 m; draft 10.3 m.

Type: Ship (hazmat cat D). MMSI: 538003911.

Date/timePositionNaut miles runAvg speedWind from/ knotsBaromVisibWave heightAir tempDewpointWater temp
2014-Sep-03 03:12N 36°32' E 013°43'1014.2
2014-Sep-03 02:29N 36°28' E 013°54'1314.1
2014-Sep-03 01:33N 36°25' E 014°10'1414.6
2014-Sep-03 00:33N 36°25' E 014°28'40014.7
2014-Sep-01 21:17N 36°23' E 022°46'25 8.8
2014-Sep-01 18:28N 36°22' E 023°16'1415.1
2014-Sep-01 17:33N 36°29' E 023°31'1815.2
2014-Sep-01 16:24N 36°39' E 023°49'1315.0
2014-Sep-01 15:33N 36°49' E 023°60'1615.8
2014-Sep-01 14:33N 37°03' E 024°07'1615.8
2014-Sep-01 13:34N 37°18' E 024°13'1616.1
2014-Sep-01 12:34N 37°32' E 024°23'1716.7
2014-Sep-01 11:33N 37°47' E 024°33'2416.3
2014-Sep-01 10:05N 38°09' E 024°44'1316.2
2014-Sep-01 09:17N 38°21' E 024°51'1115.8
2014-Sep-01 08:34N 38°32' E 024°57'1515.3
2014-Sep-01 07:33N 38°44' E 025°09'1515.5
2014-Sep-01 06:33N 38°59' E 025°15'194 6.1
2014-Aug-30 22:33N 40°53' E 028°39'1312.5
2014-Aug-30 21:33N 40°57' E 028°55'  
2014-Aug-28 02:32N 45°55' E 031°13'2713.7
2014-Aug-28 00:33N 45°28' E 031°18'5614.1
2014-Aug-27 20:33N 44°33' E 030°56'1514.5
2014-Aug-27 19:33N 44°20' E 030°48'1714.4
2014-Aug-27 18:22N 44°04' E 030°39'20013.5
2014-Aug-27 03:33N 40°57' E 028°59'9 8.7
2014-Aug-27 02:33N 40°51' E 028°51'5 4.3
2014-Aug-27 01:28N 40°48' E 028°47'1 0.6
2014-Aug-27 00:33N 40°48' E 028°47'0 0.4
2014-Aug-26 23:30N 40°49' E 028°47'1 0.9
2014-Aug-26 22:32N 40°48' E 028°47'7 7.2
2014-Aug-26 21:33N 40°41' E 028°43'0 0.2
2014-Aug-26 20:11N 40°41' E 028°42'1 1.2
2014-Aug-26 19:24N 40°42' E 028°43'1 1.2
2014-Aug-26 18:31N 40°42' E 028°45'1 1.2
2014-Aug-26 17:18N 40°43' E 028°46'1 1.3
2014-Aug-26 16:26N 40°44' E 028°47'1 1.3
2014-Aug-26 15:27N 40°45' E 028°48'1 1.3
2014-Aug-26 14:33N 40°46' E 028°48'1 1.2
2014-Aug-26 13:31N 40°47' E 028°49'1 1.0
2014-Aug-26 12:31N 40°48' E 028°50'3 2.7
2014-Aug-26 11:33N 40°49' E 028°53'2 1.6
2014-Aug-26 10:31N 40°48' E 028°51'1 0.8
2014-Aug-26 09:33N 40°49' E 028°52'1 0.7
2014-Aug-26 08:33N 40°48' E 028°52'1 1.3
2014-Aug-26 07:33N 40°48' E 028°54'3 2.8
2014-Aug-26 06:32N 40°46' E 028°51'2 2.3
2014-Aug-26 05:32N 40°46' E 028°48'1 1.2
2014-Aug-26 04:33N 40°47' E 028°49'1 1.1
2014-Aug-26 03:33N 40°48' E 028°50'2 1.5
2014-Aug-26 02:32N 40°47' E 028°48'1310.4
2014-Aug-26 01:16N 40°49' E 028°31'7612.3
2014-Aug-25 19:07N 40°29' E 026°55'61 2.7
2014-Aug-24 20:14N 39°48' E 025°56'0 0.1
2014-Aug-24 19:21N 39°48' E 025°56'0 0.1
2014-Aug-24 18:33N 39°48' E 025°56'0 0.0
2014-Aug-24 16:21N 39°48' E 025°56'0 0.1
2014-Aug-24 15:33N 39°48' E 025°56'1 1.2
2014-Aug-24 14:33N 39°47' E 025°55'1514.0
2014-Aug-24 13:31N 39°36' E 025°42'1616.5
2014-Aug-24 12:31N 39°22' E 025°32'1616.6
2014-Aug-24 11:32N 39°07' E 025°23'1616.2
2014-Aug-24 10:33N 38°53' E 025°14'1616.0
2014-Aug-24 09:33N 38°39' E 025°04'1615.7
2014-Aug-24 08:33N 38°25' E 024°55'1714.8
2014-Aug-24 07:26N 38°10' E 024°46'1416.1
2014-Aug-24 06:32N 37°57' E 024°37'1616.3
2014-Aug-24 05:33N 37°42' E 024°32'1716.2
2014-Aug-24 04:29N 37°27' E 024°19'1515.6
2014-Aug-24 03:33N 37°14' E 024°11'  
Track history (hours):
 
Tides and Currents Weather Stations Pressure Air Temp Water Temp Dewpoint Dewpoint Depression Visibility Wind Speed Wind Dir Waves Ship Positions

Gas Snapper

Last reported at 2014-Sep-03 03:12 UTC. Time now 2014-Sep-03 07:14 UTC.
Position N 36°32' E 013°43'.

Length 174 m; draft 10.3 m.

Type: Ship (hazmat cat D). MMSI: 538003911.

Date/timePositionNaut miles runAvg speedWind from/ knotsBaromVisibWave heightAir tempDewpointWater temp
2014-Sep-03 03:12N 36°32' E 013°43'1014.2
2014-Sep-03 02:29N 36°28' E 013°54'1314.1
2014-Sep-03 01:33N 36°25' E 014°10'1414.6
2014-Sep-03 00:33N 36°25' E 014°28'40014.7
2014-Sep-01 21:17N 36°23' E 022°46'25 8.8
2014-Sep-01 18:28N 36°22' E 023°16'1415.1
2014-Sep-01 17:33N 36°29' E 023°31'1815.2
2014-Sep-01 16:24N 36°39' E 023°49'1315.0
2014-Sep-01 15:33N 36°49' E 023°60'1615.8
2014-Sep-01 14:33N 37°03' E 024°07'1615.8
2014-Sep-01 13:34N 37°18' E 024°13'1616.1
2014-Sep-01 12:34N 37°32' E 024°23'1716.7
2014-Sep-01 11:33N 37°47' E 024°33'2416.3
2014-Sep-01 10:05N 38°09' E 024°44'1316.2
2014-Sep-01 09:17N 38°21' E 024°51'1115.8
2014-Sep-01 08:34N 38°32' E 024°57'1515.3
2014-Sep-01 07:33N 38°44' E 025°09'1515.5
2014-Sep-01 06:33N 38°59' E 025°15'194 6.1
2014-Aug-30 22:33N 40°53' E 028°39'1312.5
2014-Aug-30 21:33N 40°57' E 028°55'  
2014-Aug-28 02:32N 45°55' E 031°13'2713.7
2014-Aug-28 00:33N 45°28' E 031°18'5614.1
2014-Aug-27 20:33N 44°33' E 030°56'1514.5
2014-Aug-27 19:33N 44°20' E 030°48'1714.4
2014-Aug-27 18:22N 44°04' E 030°39'20013.5
2014-Aug-27 03:33N 40°57' E 028°59'9 8.7
2014-Aug-27 02:33N 40°51' E 028°51'5 4.3
2014-Aug-27 01:28N 40°48' E 028°47'1 0.6
2014-Aug-27 00:33N 40°48' E 028°47'0 0.4
2014-Aug-26 23:30N 40°49' E 028°47'1 0.9
2014-Aug-26 22:32N 40°48' E 028°47'7 7.2
2014-Aug-26 21:33N 40°41' E 028°43'0 0.2
2014-Aug-26 20:11N 40°41' E 028°42'1 1.2
2014-Aug-26 19:24N 40°42' E 028°43'1 1.2
2014-Aug-26 18:31N 40°42' E 028°45'1 1.2
2014-Aug-26 17:18N 40°43' E 028°46'1 1.3
2014-Aug-26 16:26N 40°44' E 028°47'1 1.3
2014-Aug-26 15:27N 40°45' E 028°48'1 1.3
2014-Aug-26 14:33N 40°46' E 028°48'1 1.2
2014-Aug-26 13:31N 40°47' E 028°49'1 1.0
2014-Aug-26 12:31N 40°48' E 028°50'3 2.7
2014-Aug-26 11:33N 40°49' E 028°53'2 1.6
2014-Aug-26 10:31N 40°48' E 028°51'1 0.8
2014-Aug-26 09:33N 40°49' E 028°52'1 0.7
2014-Aug-26 08:33N 40°48' E 028°52'1 1.3
2014-Aug-26 07:33N 40°48' E 028°54'3 2.8
2014-Aug-26 06:32N 40°46' E 028°51'2 2.3
2014-Aug-26 05:32N 40°46' E 028°48'1 1.2
2014-Aug-26 04:33N 40°47' E 028°49'1 1.1
2014-Aug-26 03:33N 40°48' E 028°50'2 1.5
2014-Aug-26 02:32N 40°47' E 028°48'1310.4
2014-Aug-26 01:16N 40°49' E 028°31'7612.3
2014-Aug-25 19:07N 40°29' E 026°55'61 2.7
2014-Aug-24 20:14N 39°48' E 025°56'0 0.1
2014-Aug-24 19:21N 39°48' E 025°56'0 0.1
2014-Aug-24 18:33N 39°48' E 025°56'0 0.0
2014-Aug-24 16:21N 39°48' E 025°56'0 0.1
2014-Aug-24 15:33N 39°48' E 025°56'1 1.2
2014-Aug-24 14:33N 39°47' E 025°55'1514.0
2014-Aug-24 13:31N 39°36' E 025°42'1616.5
2014-Aug-24 12:31N 39°22' E 025°32'1616.6
2014-Aug-24 11:32N 39°07' E 025°23'1616.2
2014-Aug-24 10:33N 38°53' E 025°14'1616.0
2014-Aug-24 09:33N 38°39' E 025°04'1615.7
2014-Aug-24 08:33N 38°25' E 024°55'1714.8
2014-Aug-24 07:26N 38°10' E 024°46'1416.1
2014-Aug-24 06:32N 37°57' E 024°37'1616.3
2014-Aug-24 05:33N 37°42' E 024°32'1716.2
2014-Aug-24 04:29N 37°27' E 024°19'1515.6
2014-Aug-24 03:33N 37°14' E 024°11'  

Dump ship's entire track history